Terminal Aerodrome Forecast
Issued by NWS

Home | Current Version | Previous Version | Text Only | Print | Product List | Glossary On
Versions: 1 2 3 4 5 6 7 8 9 10 11 12 13 14 15 16 17 18 19 20 21 22 23 24 25 26 27
000
FTUS43 KGRB 261735
TAFATW
TAF
KATW 261735Z 2618/2718 21009G15KT 3SM -RA BKN006 BKN014 OVC028
     FM261900 19010KT P6SM SCT035 OVC060
     FM270000 23006KT P6SM -SHRA SCT020 OVC050
     FM270300 28005KT 6SM SHRA OVC020
     FM270700 32007KT 4SM SHRA OVC008
     FM271700 27010KT 6SM -SHRA OVC010=

USA.gov is the U.S. government's official web portal to all federal, state and local government web resources and services.